Terminal Aerodrome Forecast
Issued by NWS

Home | Current Version | Previous Version | Graphics & Text | Print | Product List | Glossary On
Versions: 1 2 3 4 5 6 7 8 9 10 11 12 13 14 15
000
FTUS43 KPAH 281138
TAFCGI
TAF
KCGI 281138Z 2812/0112 06007KT P6SM OVC050
     FM282300 08004KT 3SM -SN BR BKN015 OVC035
     FM010700 00000KT 5SM -FZRA BR OVC009=

USA.gov is the U.S. government's official web portal to all federal, state and local government web resources and services.